Airfield :
LOGIN :

Register | Disclaimer

   EN    FR    IT 

 










Legend :    VFR   Marginal VFR   IFR   Intensive IFR   Very Intensive IFR
Visi :
Ceiling :
>= 8 km
>= 3000ft
5 to 8 km
1000 to 3000 ft
1500m to 5 km
500 to 1000 ft
800 to 1500m
200 to 500 ft
< 800m
< 200 ft
Symbols :   Thunderstorms  Fog  Heavy snow  Heavy precipitations  Wind > 20 kt
SIGMETs :     Misc.  Thunderstorms  Icing  Turbulence  Mountain Waves  Volcanic Ashes







- Airport Elevation : 231 ft
- IATA code : WTN


EGXW - RAF Waddington

CURRENT METAR :
  • 161150Z 27009KT 9999 -RA FEW008 BKN030 07/06 Q1000 BLU TEMPO SCT008 GRN

EXPIRED METARs :
  • 161124Z 23018KT 9999 7000N -RA SCT014 SCT018 BKN050 10/07 Q0999 GRN TEMPO 4000 RA GRN
  • 161050Z 22018KT 9999 SCT013 SCT025 BKN045 09/07 Q1000 GRN TEMPO 7000 -RA GRN
  • 160950Z 22016KT 9999 FEW018 08/06 Q1001 BLU TEMPO SCT010 GRN
  • 160905Z 21017KT 9999 FEW010 BKN025 08/07 Q1001 BLU NOSIG

TAF TAF EGXW
Valid from the 16 at 12:00 until the 17 at 06:00 UTC


161048Z 1612/1706 22015KT 9999 -RA SCT018
PROB40
TEMPO 1612/1614 29017G27KT 4000 RA SCT012
BECMG 1614/1616 25012KT NSW FEW018
BECMG 1703/1706 33016G26KT
PROB30 1704/1706 2500 -RASN BKN006
No reported NOTAMs for that airfield.



MET'MAP, your aeronautical weather chart ! - Copyright ORBIFLY December 2007 - Disclaimer

ORBIFLY MET'MAP TEAM :

Programming & Development : Alexandra Zaïnal
Concept & Development : Baudouin d'Aumeries
Co-Development & Prog : Marc-Olivier Méhu
Technical & hardware support : Manuel Goepfert

Contact : metmap@orbifly.com




SOURCES & CREDITS :

   NOAA